sensor_id;sensor_type;location;lat;lon;timestamp;temperature;humidity
9043;DHT22;4556;49.150;8.808;2023-04-09T00:01:04;7.50;99.90
9043;DHT22;4556;49.150;8.808;2023-04-09T00:03:32;8.60;99.90
9043;DHT22;4556;49.150;8.808;2023-04-09T00:05:59;8.00;99.90
9043;DHT22;4556;49.150;8.808;2023-04-09T00:08:26;7.40;99.90
9043;DHT22;4556;49.150;8.808;2023-04-09T00:10:56;7.70;99.90
9043;DHT22;4556;49.150;8.808;2023-04-09T00:13:24;8.30;99.90
9043;DHT22;4556;49.150;8.808;2023-04-09T00:15:51;7.40;99.90
9043;DHT22;4556;49.150;8.808;2023-04-09T00:18:18;7.40;99.90
9043;DHT22;4556;49.150;8.808;2023-04-09T00:20:45;7.40;99.90
9043;DHT22;4556;49.150;8.808;2023-04-09T00:23:12;8.10;99.90
9043;DHT22;4556;49.150;8.808;2023-04-09T00:25:40;7.90;99.90
9043;DHT22;4556;49.150;8.808;2023-04-09T00:28:08;7.40;99.90
9043;DHT22;4556;49.150;8.808;2023-04-09T00:30:40;8.10;99.90
9043;DHT22;4556;49.150;8.808;2023-04-09T00:33:07;8.00;99.90
9043;DHT22;4556;49.150;8.808;2023-04-09T00:35:34;8.30;99.90
9043;DHT22;4556;49.150;8.808;2023-04-09T00:38:01;7.70;99.90
9043;DHT22;4556;49.150;8.808;2023-04-09T00:40:29;8.80;99.90
9043;DHT22;4556;49.150;8.808;2023-04-09T00:42:56;7.40;99.90
9043;DHT22;4556;49.150;8.808;2023-04-09T00:45:28;7.60;99.90
9043;DHT22;4556;49.150;8.808;2023-04-09T00:47:55;7.40;99.90
9043;DHT22;4556;49.150;8.808;2023-04-09T00:50:25;8.20;99.90
9043;DHT22;4556;49.150;8.808;2023-04-09T00:52:52;7.80;99.90
9043;DHT22;4556;49.150;8.808;2023-04-09T00:55:20;7.20;99.90
9043;DHT22;4556;49.150;8.808;2023-04-09T00:57:48;7.30;99.90
9043;DHT22;4556;49.150;8.808;2023-04-09T01:00:15;7.80;99.90
9043;DHT22;4556;49.150;8.808;2023-04-09T01:02:44;7.00;99.90
9043;DHT22;4556;49.150;8.808;2023-04-09T01:05:11;6.90;99.90
9043;DHT22;4556;49.150;8.808;2023-04-09T01:07:48;7.70;99.90
9043;DHT22;4556;49.150;8.808;2023-04-09T01:10:26;7.00;99.90
9043;DHT22;4556;49.150;8.808;2023-04-09T01:13:03;7.00;99.90
9043;DHT22;4556;49.150;8.808;2023-04-09T01:15:35;7.10;99.90
9043;DHT22;4556;49.150;8.808;2023-04-09T01:18:08;7.50;99.90
9043;DHT22;4556;49.150;8.808;2023-04-09T01:20:39;7.40;99.90
9043;DHT22;4556;49.150;8.808;2023-04-09T01:23:15;7.90;99.90
9043;DHT22;4556;49.150;8.808;2023-04-09T01:25:49;8.10;99.90
9043;DHT22;4556;49.150;8.808;2023-04-09T01:28:22;8.40;99.90
9043;DHT22;4556;49.150;8.808;2023-04-09T01:30:56;8.20;99.90
9043;DHT22;4556;49.150;8.808;2023-04-09T01:33:24;8.10;99.90
9043;DHT22;4556;49.150;8.808;2023-04-09T01:35:54;7.90;99.90
9043;DHT22;4556;49.150;8.808;2023-04-09T01:38:22;7.10;99.90
9043;DHT22;4556;49.150;8.808;2023-04-09T01:40:50;7.20;99.90
9043;DHT22;4556;49.150;8.808;2023-04-09T01:43:20;7.20;99.90
9043;DHT22;4556;49.150;8.808;2023-04-09T01:45:47;7.20;99.90
9043;DHT22;4556;49.150;8.808;2023-04-09T01:48:15;7.70;99.90
9043;DHT22;4556;49.150;8.808;2023-04-09T01:50:43;7.10;99.90
9043;DHT22;4556;49.150;8.808;2023-04-09T01:53:11;7.00;99.90
9043;DHT22;4556;49.150;8.808;2023-04-09T01:55:38;7.60;99.90
9043;DHT22;4556;49.150;8.808;2023-04-09T01:58:05;6.90;99.90
9043;DHT22;4556;49.150;8.808;2023-04-09T02:00:37;6.90;99.90
9043;DHT22;4556;49.150;8.808;2023-04-09T02:03:09;8.10;99.90
9043;DHT22;4556;49.150;8.808;2023-04-09T02:05:40;7.00;99.90
9043;DHT22;4556;49.150;8.808;2023-04-09T02:08:10;7.10;99.90
9043;DHT22;4556;49.150;8.808;2023-04-09T02:10:39;7.50;99.90
9043;DHT22;4556;49.150;8.808;2023-04-09T02:13:09;7.10;99.90
9043;DHT22;4556;49.150;8.808;2023-04-09T02:15:42;7.10;99.90
9043;DHT22;4556;49.150;8.808;2023-04-09T02:18:21;7.00;99.90
9043;DHT22;4556;49.150;8.808;2023-04-09T02:20:48;7.10;99.90
9043;DHT22;4556;49.150;8.808;2023-04-09T02:23:15;7.10;99.90
9043;DHT22;4556;49.150;8.808;2023-04-09T02:25:43;7.30;99.90
9043;DHT22;4556;49.150;8.808;2023-04-09T02:28:10;7.00;99.90
9043;DHT22;4556;49.150;8.808;2023-04-09T02:30:37;6.80;99.90
9043;DHT22;4556;49.150;8.808;2023-04-09T02:33:06;6.90;99.90
9043;DHT22;4556;49.150;8.808;2023-04-09T02:35:33;6.90;99.90
9043;DHT22;4556;49.150;8.808;2023-04-09T02:38:01;8.20;99.90
9043;DHT22;4556;49.150;8.808;2023-04-09T02:40:28;7.00;99.90
9043;DHT22;4556;49.150;8.808;2023-04-09T02:42:55;7.00;99.90
9043;DHT22;4556;49.150;8.808;2023-04-09T02:45:23;6.90;99.90
9043;DHT22;4556;49.150;8.808;2023-04-09T02:47:50;6.90;99.90
9043;DHT22;4556;49.150;8.808;2023-04-09T02:50:19;6.80;99.90
9043;DHT22;4556;49.150;8.808;2023-04-09T02:52:46;6.70;99.90
9043;DHT22;4556;49.150;8.808;2023-04-09T02:55:13;7.50;99.90
9043;DHT22;4556;49.150;8.808;2023-04-09T02:57:41;6.60;99.90
9043;DHT22;4556;49.150;8.808;2023-04-09T03:00:08;6.60;99.90
9043;DHT22;4556;49.150;8.808;2023-04-09T03:02:36;6.70;99.90
9043;DHT22;4556;49.150;8.808;2023-04-09T03:05:04;6.80;99.90
9043;DHT22;4556;49.150;8.808;2023-04-09T03:07:33;6.50;99.90
9043;DHT22;4556;49.150;8.808;2023-04-09T03:10:00;7.10;99.90
9043;DHT22;4556;49.150;8.808;2023-04-09T03:12:27;6.70;99.90
9043;DHT22;4556;49.150;8.808;2023-04-09T03:14:55;7.00;99.90
9043;DHT22;4556;49.150;8.808;2023-04-09T03:17:22;6.60;99.90
9043;DHT22;4556;49.150;8.808;2023-04-09T03:19:51;7.00;99.90
9043;DHT22;4556;49.150;8.808;2023-04-09T03:22:19;6.30;99.90
9043;DHT22;4556;49.150;8.808;2023-04-09T03:24:47;6.30;99.90
9043;DHT22;4556;49.150;8.808;2023-04-09T03:27:14;6.00;99.90
9043;DHT22;4556;49.150;8.808;2023-04-09T03:29:41;5.90;99.90
9043;DHT22;4556;49.150;8.808;2023-04-09T03:32:08;5.90;99.90
9043;DHT22;4556;49.150;8.808;2023-04-09T03:34:35;5.90;99.90
9043;DHT22;4556;49.150;8.808;2023-04-09T03:37:03;5.90;99.90
9043;DHT22;4556;49.150;8.808;2023-04-09T03:39:29;5.80;99.90
9043;DHT22;4556;49.150;8.808;2023-04-09T03:41:58;5.70;99.90
9043;DHT22;4556;49.150;8.808;2023-04-09T03:44:26;5.70;99.90
9043;DHT22;4556;49.150;8.808;2023-04-09T03:46:53;6.50;99.90
9043;DHT22;4556;49.150;8.808;2023-04-09T03:49:20;6.40;99.90
9043;DHT22;4556;49.150;8.808;2023-04-09T03:51:47;6.50;99.90
9043;DHT22;4556;49.150;8.808;2023-04-09T03:54:15;5.80;99.90
9043;DHT22;4556;49.150;8.808;2023-04-09T03:56:42;5.60;99.90
9043;DHT22;4556;49.150;8.808;2023-04-09T03:59:11;6.40;99.90
9043;DHT22;4556;49.150;8.808;2023-04-09T04:01:38;5.40;99.90
9043;DHT22;4556;49.150;8.808;2023-04-09T04:04:05;5.30;99.90
9043;DHT22;4556;49.150;8.808;2023-04-09T04:06:33;5.30;99.90
9043;DHT22;4556;49.150;8.808;2023-04-09T04:09:00;5.20;99.90
9043;DHT22;4556;49.150;8.808;2023-04-09T04:11:27;5.20;99.90
9043;DHT22;4556;49.150;8.808;2023-04-09T04:13:55;5.10;99.90
9043;DHT22;4556;49.150;8.808;2023-04-09T04:16:24;5.00;99.90
9043;DHT22;4556;49.150;8.808;2023-04-09T04:18:51;6.40;99.90
9043;DHT22;4556;49.150;8.808;2023-04-09T04:21:18;4.90;99.90
9043;DHT22;4556;49.150;8.808;2023-04-09T04:23:45;4.90;99.90
9043;DHT22;4556;49.150;8.808;2023-04-09T04:26:13;6.00;99.90
9043;DHT22;4556;49.150;8.808;2023-04-09T04:28:40;5.00;99.90
9043;DHT22;4556;49.150;8.808;2023-04-09T04:31:07;5.30;99.90
9043;DHT22;4556;49.150;8.808;2023-04-09T04:33:38;5.50;99.90
9043;DHT22;4556;49.150;8.808;2023-04-09T04:36:06;5.50;99.90
9043;DHT22;4556;49.150;8.808;2023-04-09T04:38:34;4.80;99.90
9043;DHT22;4556;49.150;8.808;2023-04-09T04:41:01;5.70;99.90
9043;DHT22;4556;49.150;8.808;2023-04-09T04:43:28;5.40;99.90
9043;DHT22;4556;49.150;8.808;2023-04-09T04:45:57;4.90;99.90
9043;DHT22;4556;49.150;8.808;2023-04-09T04:48:24;4.90;99.90
9043;DHT22;4556;49.150;8.808;2023-04-09T04:50:58;4.90;99.90
9043;DHT22;4556;49.150;8.808;2023-04-09T04:53:26;4.90;99.90
9043;DHT22;4556;49.150;8.808;2023-04-09T04:55:53;5.00;99.90
9043;DHT22;4556;49.150;8.808;2023-04-09T04:58:21;4.90;99.90
9043;DHT22;4556;49.150;8.808;2023-04-09T05:00:48;6.00;99.90
9043;DHT22;4556;49.150;8.808;2023-04-09T05:03:15;5.70;99.90
9043;DHT22;4556;49.150;8.808;2023-04-09T05:05:42;6.00;99.90
9043;DHT22;4556;49.150;8.808;2023-04-09T05:08:12;5.10;99.90
9043;DHT22;4556;49.150;8.808;2023-04-09T05:10:40;5.20;99.90
9043;DHT22;4556;49.150;8.808;2023-04-09T05:13:07;5.20;99.90
9043;DHT22;4556;49.150;8.808;2023-04-09T05:15:37;5.10;99.90
9043;DHT22;4556;49.150;8.808;2023-04-09T05:18:04;5.10;99.90
9043;DHT22;4556;49.150;8.808;2023-04-09T05:20:31;5.20;99.90
9043;DHT22;4556;49.150;8.808;2023-04-09T05:22:58;5.40;99.90
9043;DHT22;4556;49.150;8.808;2023-04-09T05:25:27;5.30;99.90
9043;DHT22;4556;49.150;8.808;2023-04-09T05:27:54;5.20;99.90
9043;DHT22;4556;49.150;8.808;2023-04-09T05:30:22;5.30;99.90
9043;DHT22;4556;49.150;8.808;2023-04-09T05:32:48;5.30;99.90
9043;DHT22;4556;49.150;8.808;2023-04-09T05:35:16;5.20;99.90
9043;DHT22;4556;49.150;8.808;2023-04-09T05:37:43;5.30;99.90
9043;DHT22;4556;49.150;8.808;2023-04-09T05:40:11;5.30;99.90
9043;DHT22;4556;49.150;8.808;2023-04-09T05:42:41;5.30;99.90
9043;DHT22;4556;49.150;8.808;2023-04-09T05:45:09;5.90;99.90
9043;DHT22;4556;49.150;8.808;2023-04-09T05:47:36;5.20;99.90
9043;DHT22;4556;49.150;8.808;2023-04-09T05:50:04;5.80;99.90
9043;DHT22;4556;49.150;8.808;2023-04-09T05:52:31;5.30;99.90
9043;DHT22;4556;49.150;8.808;2023-04-09T05:54:58;5.30;99.90
9043;DHT22;4556;49.150;8.808;2023-04-09T05:57:25;5.80;99.90
9043;DHT22;4556;49.150;8.808;2023-04-09T05:59:58;5.50;99.90
9043;DHT22;4556;49.150;8.808;2023-04-09T06:02:26;5.50;99.90
9043;DHT22;4556;49.150;8.808;2023-04-09T06:04:53;5.50;99.90
9043;DHT22;4556;49.150;8.808;2023-04-09T06:07:21;6.20;99.90
9043;DHT22;4556;49.150;8.808;2023-04-09T06:09:48;6.20;99.90
9043;DHT22;4556;49.150;8.808;2023-04-09T06:12:15;6.10;99.90
9043;DHT22;4556;49.150;8.808;2023-04-09T06:14:42;6.20;99.90
9043;DHT22;4556;49.150;8.808;2023-04-09T06:17:11;5.90;99.90
9043;DHT22;4556;49.150;8.808;2023-04-09T06:19:39;6.00;99.90
9043;DHT22;4556;49.150;8.808;2023-04-09T06:22:08;6.20;99.90
9043;DHT22;4556;49.150;8.808;2023-04-09T06:24:36;7.30;99.90
9043;DHT22;4556;49.150;8.808;2023-04-09T06:27:03;6.40;99.90
9043;DHT22;4556;49.150;8.808;2023-04-09T06:29:30;6.60;99.90
9043;DHT22;4556;49.150;8.808;2023-04-09T06:31:57;6.70;99.90
9043;DHT22;4556;49.150;8.808;2023-04-09T06:34:26;8.10;99.90
9043;DHT22;4556;49.150;8.808;2023-04-09T06:36:53;7.20;99.90
9043;DHT22;4556;49.150;8.808;2023-04-09T06:39:20;6.90;99.90
9043;DHT22;4556;49.150;8.808;2023-04-09T06:41:47;7.90;99.90
9043;DHT22;4556;49.150;8.808;2023-04-09T06:44:15;7.10;99.90
9043;DHT22;4556;49.150;8.808;2023-04-09T06:46:42;7.30;99.90
9043;DHT22;4556;49.150;8.808;2023-04-09T06:49:09;8.20;99.90
9043;DHT22;4556;49.150;8.808;2023-04-09T06:51:37;7.10;99.90
9043;DHT22;4556;49.150;8.808;2023-04-09T06:54:05;7.20;99.90
9043;DHT22;4556;49.150;8.808;2023-04-09T06:56:32;8.00;99.90
9043;DHT22;4556;49.150;8.808;2023-04-09T06:59:00;7.50;99.90
9043;DHT22;4556;49.150;8.808;2023-04-09T07:01:26;7.80;99.90
9043;DHT22;4556;49.150;8.808;2023-04-09T07:03:54;7.30;99.90
9043;DHT22;4556;49.150;8.808;2023-04-09T07:06:21;7.30;99.90
9043;DHT22;4556;49.150;8.808;2023-04-09T07:08:49;7.40;99.90
9043;DHT22;4556;49.150;8.808;2023-04-09T07:11:16;7.50;99.90
9043;DHT22;4556;49.150;8.808;2023-04-09T07:13:43;7.50;99.90
9043;DHT22;4556;49.150;8.808;2023-04-09T07:16:10;7.60;99.90
9043;DHT22;4556;49.150;8.808;2023-04-09T07:18:37;7.70;99.90
9043;DHT22;4556;49.150;8.808;2023-04-09T07:21:05;7.70;99.90
9043;DHT22;4556;49.150;8.808;2023-04-09T07:23:33;7.70;99.90
9043;DHT22;4556;49.150;8.808;2023-04-09T07:26:03;7.80;99.90
9043;DHT22;4556;49.150;8.808;2023-04-09T07:28:30;7.90;99.90
9043;DHT22;4556;49.150;8.808;2023-04-09T07:30:59;8.10;99.90
9043;DHT22;4556;49.150;8.808;2023-04-09T07:33:27;8.10;99.90
9043;DHT22;4556;49.150;8.808;2023-04-09T07:35:54;8.30;99.90
9043;DHT22;4556;49.150;8.808;2023-04-09T07:38:22;8.40;99.90
9043;DHT22;4556;49.150;8.808;2023-04-09T07:40:49;8.90;99.90
9043;DHT22;4556;49.150;8.808;2023-04-09T07:43:17;9.50;99.90
9043;DHT22;4556;49.150;8.808;2023-04-09T07:45:47;8.90;99.90
9043;DHT22;4556;49.150;8.808;2023-04-09T07:48:15;9.10;99.90
9043;DHT22;4556;49.150;8.808;2023-04-09T07:50:42;9.50;99.90
9043;DHT22;4556;49.150;8.808;2023-04-09T07:53:09;10.00;99.90
9043;DHT22;4556;49.150;8.808;2023-04-09T07:55:37;9.70;99.90
9043;DHT22;4556;49.150;8.808;2023-04-09T07:58:04;10.00;99.90
9043;DHT22;4556;49.150;8.808;2023-04-09T08:00:34;10.20;99.90
9043;DHT22;4556;49.150;8.808;2023-04-09T08:03:02;10.20;99.90
9043;DHT22;4556;49.150;8.808;2023-04-09T08:05:29;10.30;99.90
9043;DHT22;4556;49.150;8.808;2023-04-09T08:07:56;10.80;99.90
9043;DHT22;4556;49.150;8.808;2023-04-09T08:10:24;10.60;99.90
9043;DHT22;4556;49.150;8.808;2023-04-09T08:12:52;10.60;99.90
9043;DHT22;4556;49.150;8.808;2023-04-09T08:15:20;10.60;99.90
9043;DHT22;4556;49.150;8.808;2023-04-09T08:17:48;10.60;99.90
9043;DHT22;4556;49.150;8.808;2023-04-09T08:20:16;10.70;99.90
9043;DHT22;4556;49.150;8.808;2023-04-09T08:22:43;10.80;99.90
9043;DHT22;4556;49.150;8.808;2023-04-09T08:25:11;10.60;99.90
9043;DHT22;4556;49.150;8.808;2023-04-09T08:27:38;10.70;99.90
9043;DHT22;4556;49.150;8.808;2023-04-09T08:30:07;10.70;99.90
9043;DHT22;4556;49.150;8.808;2023-04-09T08:32:34;10.80;99.90
9043;DHT22;4556;49.150;8.808;2023-04-09T08:35:03;10.90;99.90
9043;DHT22;4556;49.150;8.808;2023-04-09T08:37:31;11.10;99.90
9043;DHT22;4556;49.150;8.808;2023-04-09T08:39:59;11.20;99.90
9043;DHT22;4556;49.150;8.808;2023-04-09T08:42:26;12.20;99.90
9043;DHT22;4556;49.150;8.808;2023-04-09T08:44:55;11.50;99.90
9043;DHT22;4556;49.150;8.808;2023-04-09T08:47:22;11.30;99.90
9043;DHT22;4556;49.150;8.808;2023-04-09T08:49:50;11.10;99.90
9043;DHT22;4556;49.150;8.808;2023-04-09T08:52:18;11.40;99.90
9043;DHT22;4556;49.150;8.808;2023-04-09T08:54:56;12.20;99.90
9043;DHT22;4556;49.150;8.808;2023-04-09T08:57:23;11.60;99.90
9043;DHT22;4556;49.150;8.808;2023-04-09T08:59:50;11.60;99.90
9043;DHT22;4556;49.150;8.808;2023-04-09T09:02:17;11.60;99.90
9043;DHT22;4556;49.150;8.808;2023-04-09T09:04:48;12.20;99.90
9043;DHT22;4556;49.150;8.808;2023-04-09T09:07:16;11.70;99.90
9043;DHT22;4556;49.150;8.808;2023-04-09T09:09:55;11.90;99.90
9043;DHT22;4556;49.150;8.808;2023-04-09T09:12:34;12.80;99.90
9043;DHT22;4556;49.150;8.808;2023-04-09T09:15:02;13.10;99.90
9043;DHT22;4556;49.150;8.808;2023-04-09T09:17:29;12.20;99.90
9043;DHT22;4556;49.150;8.808;2023-04-09T09:19:56;12.20;99.90
9043;DHT22;4556;49.150;8.808;2023-04-09T09:22:24;11.70;99.90
9043;DHT22;4556;49.150;8.808;2023-04-09T09:24:52;11.80;99.90
9043;DHT22;4556;49.150;8.808;2023-04-09T09:27:38;11.90;99.90
9043;DHT22;4556;49.150;8.808;2023-04-09T09:30:06;12.20;99.90
9043;DHT22;4556;49.150;8.808;2023-04-09T09:32:35;12.40;99.90
9043;DHT22;4556;49.150;8.808;2023-04-09T09:35:04;12.40;99.90
9043;DHT22;4556;49.150;8.808;2023-04-09T09:37:32;12.30;99.90
9043;DHT22;4556;49.150;8.808;2023-04-09T09:40:01;12.20;99.90
9043;DHT22;4556;49.150;8.808;2023-04-09T09:42:29;12.30;99.90
9043;DHT22;4556;49.150;8.808;2023-04-09T09:45:04;12.00;99.90
9043;DHT22;4556;49.150;8.808;2023-04-09T09:47:44;12.10;99.90
9043;DHT22;4556;49.150;8.808;2023-04-09T09:50:11;11.80;99.90
9043;DHT22;4556;49.150;8.808;2023-04-09T09:52:40;12.50;99.90
9043;DHT22;4556;49.150;8.808;2023-04-09T09:55:12;12.60;99.90
9043;DHT22;4556;49.150;8.808;2023-04-09T09:57:43;12.40;99.90
9043;DHT22;4556;49.150;8.808;2023-04-09T10:00:14;12.60;99.90
9043;DHT22;4556;49.150;8.808;2023-04-09T10:02:47;12.20;99.90
9043;DHT22;4556;49.150;8.808;2023-04-09T10:05:19;12.10;99.90
9043;DHT22;4556;49.150;8.808;2023-04-09T10:07:51;12.00;99.90
9043;DHT22;4556;49.150;8.808;2023-04-09T10:10:19;13.20;99.90
9043;DHT22;4556;49.150;8.808;2023-04-09T10:12:50;12.70;99.90
9043;DHT22;4556;49.150;8.808;2023-04-09T10:15:19;13.30;99.90
9043;DHT22;4556;49.150;8.808;2023-04-09T10:17:47;12.00;99.90
9043;DHT22;4556;49.150;8.808;2023-04-09T10:20:17;12.00;99.90
9043;DHT22;4556;49.150;8.808;2023-04-09T10:22:48;12.00;99.90
9043;DHT22;4556;49.150;8.808;2023-04-09T10:25:16;12.10;99.90
9043;DHT22;4556;49.150;8.808;2023-04-09T10:27:44;12.40;99.90
9043;DHT22;4556;49.150;8.808;2023-04-09T10:30:33;12.20;99.90
9043;DHT22;4556;49.150;8.808;2023-04-09T10:33:09;12.00;99.90
9043;DHT22;4556;49.150;8.808;2023-04-09T10:35:37;12.00;99.90
9043;DHT22;4556;49.150;8.808;2023-04-09T10:38:06;12.90;99.90
9043;DHT22;4556;49.150;8.808;2023-04-09T10:40:34;12.10;99.90
9043;DHT22;4556;49.150;8.808;2023-04-09T10:43:03;12.10;99.90
9043;DHT22;4556;49.150;8.808;2023-04-09T10:45:40;12.20;99.90
9043;DHT22;4556;49.150;8.808;2023-04-09T10:48:11;12.20;99.90
9043;DHT22;4556;49.150;8.808;2023-04-09T10:50:43;12.20;99.90
9043;DHT22;4556;49.150;8.808;2023-04-09T10:53:20;12.20;99.90
9043;DHT22;4556;49.150;8.808;2023-04-09T10:55:49;12.20;99.90
9043;DHT22;4556;49.150;8.808;2023-04-09T10:58:17;12.30;99.90
9043;DHT22;4556;49.150;8.808;2023-04-09T11:00:46;12.40;99.90
9043;DHT22;4556;49.150;8.808;2023-04-09T11:03:22;12.80;99.90
9043;DHT22;4556;49.150;8.808;2023-04-09T11:08:37;12.60;99.90
9043;DHT22;4556;49.150;8.808;2023-04-09T11:11:06;12.30;99.90
9043;DHT22;4556;49.150;8.808;2023-04-09T11:13:40;12.30;99.90
9043;DHT22;4556;49.150;8.808;2023-04-09T11:16:11;12.50;99.90
9043;DHT22;4556;49.150;8.808;2023-04-09T11:18:38;13.40;99.90
9043;DHT22;4556;49.150;8.808;2023-04-09T11:21:05;12.20;99.90
9043;DHT22;4556;49.150;8.808;2023-04-09T11:23:34;12.20;99.90
9043;DHT22;4556;49.150;8.808;2023-04-09T11:26:01;12.20;99.90
9043;DHT22;4556;49.150;8.808;2023-04-09T11:28:29;12.30;99.90
9043;DHT22;4556;49.150;8.808;2023-04-09T11:30:57;12.40;99.90
9043;DHT22;4556;49.150;8.808;2023-04-09T11:33:32;12.50;99.90
9043;DHT22;4556;49.150;8.808;2023-04-09T11:35:59;12.40;99.90
9043;DHT22;4556;49.150;8.808;2023-04-09T11:38:26;14.00;99.90
9043;DHT22;4556;49.150;8.808;2023-04-09T11:40:57;12.70;99.90
9043;DHT22;4556;49.150;8.808;2023-04-09T11:43:24;12.50;99.90
9043;DHT22;4556;49.150;8.808;2023-04-09T11:45:51;12.70;99.90
9043;DHT22;4556;49.150;8.808;2023-04-09T11:48:18;12.80;99.90
9043;DHT22;4556;49.150;8.808;2023-04-09T11:50:48;13.00;99.90
9043;DHT22;4556;49.150;8.808;2023-04-09T11:53:19;13.30;99.90
9043;DHT22;4556;49.150;8.808;2023-04-09T11:55:49;13.70;99.90
9043;DHT22;4556;49.150;8.808;2023-04-09T11:58:17;13.80;99.90
9043;DHT22;4556;49.150;8.808;2023-04-09T12:00:44;14.00;99.90
9043;DHT22;4556;49.150;8.808;2023-04-09T12:03:11;13.40;99.90
9043;DHT22;4556;49.150;8.808;2023-04-09T12:05:44;13.30;99.90
9043;DHT22;4556;49.150;8.808;2023-04-09T12:08:13;13.20;99.90
9043;DHT22;4556;49.150;8.808;2023-04-09T12:10:41;13.40;99.90
9043;DHT22;4556;49.150;8.808;2023-04-09T12:13:10;13.70;99.90
9043;DHT22;4556;49.150;8.808;2023-04-09T12:15:39;13.90;99.90
9043;DHT22;4556;49.150;8.808;2023-04-09T12:18:09;13.80;99.90
9043;DHT22;4556;49.150;8.808;2023-04-09T12:20:37;13.70;99.90
9043;DHT22;4556;49.150;8.808;2023-04-09T12:23:06;13.50;99.90
9043;DHT22;4556;49.150;8.808;2023-04-09T12:25:37;13.40;99.90
9043;DHT22;4556;49.150;8.808;2023-04-09T12:28:06;13.70;99.90
9043;DHT22;4556;49.150;8.808;2023-04-09T12:30:34;13.60;99.90
9043;DHT22;4556;49.150;8.808;2023-04-09T12:33:02;13.90;99.90
9043;DHT22;4556;49.150;8.808;2023-04-09T12:35:29;14.20;99.90
9043;DHT22;4556;49.150;8.808;2023-04-09T12:37:56;14.20;99.90
9043;DHT22;4556;49.150;8.808;2023-04-09T12:40:25;14.30;99.90
9043;DHT22;4556;49.150;8.808;2023-04-09T12:42:54;14.70;99.90
9043;DHT22;4556;49.150;8.808;2023-04-09T12:45:21;14.40;99.90
9043;DHT22;4556;49.150;8.808;2023-04-09T12:47:49;14.90;99.90
9043;DHT22;4556;49.150;8.808;2023-04-09T12:50:16;15.20;99.90
9043;DHT22;4556;49.150;8.808;2023-04-09T12:52:43;15.40;99.90
9043;DHT22;4556;49.150;8.808;2023-04-09T12:55:13;15.60;99.90
9043;DHT22;4556;49.150;8.808;2023-04-09T12:57:43;15.60;99.90
9043;DHT22;4556;49.150;8.808;2023-04-09T13:00:14;15.70;99.90
9043;DHT22;4556;49.150;8.808;2023-04-09T13:02:45;15.80;99.90
9043;DHT22;4556;49.150;8.808;2023-04-09T13:05:12;15.90;99.90
9043;DHT22;4556;49.150;8.808;2023-04-09T13:07:40;15.70;99.90
9043;DHT22;4556;49.150;8.808;2023-04-09T13:10:08;15.80;99.90
9043;DHT22;4556;49.150;8.808;2023-04-09T13:12:35;15.70;99.90
9043;DHT22;4556;49.150;8.808;2023-04-09T13:15:03;15.60;99.90
9043;DHT22;4556;49.150;8.808;2023-04-09T13:17:32;15.80;99.90
9043;DHT22;4556;49.150;8.808;2023-04-09T13:19:59;15.90;99.90
9043;DHT22;4556;49.150;8.808;2023-04-09T13:22:26;16.10;99.90
9043;DHT22;4556;49.150;8.808;2023-04-09T13:24:53;16.00;99.90
9043;DHT22;4556;49.150;8.808;2023-04-09T13:27:20;16.00;99.90
9043;DHT22;4556;49.150;8.808;2023-04-09T13:29:50;16.10;99.90
9043;DHT22;4556;49.150;8.808;2023-04-09T13:32:18;16.10;99.90
9043;DHT22;4556;49.150;8.808;2023-04-09T13:34:48;16.10;99.90
9043;DHT22;4556;49.150;8.808;2023-04-09T13:37:15;16.10;99.90
9043;DHT22;4556;49.150;8.808;2023-04-09T13:39:43;15.80;99.90
9043;DHT22;4556;49.150;8.808;2023-04-09T13:42:10;16.00;99.90
9043;DHT22;4556;49.150;8.808;2023-04-09T13:44:37;15.90;99.90
9043;DHT22;4556;49.150;8.808;2023-04-09T13:47:06;16.00;99.90
9043;DHT22;4556;49.150;8.808;2023-04-09T13:49:35;16.10;99.90
9043;DHT22;4556;49.150;8.808;2023-04-09T13:52:04;15.80;99.90
9043;DHT22;4556;49.150;8.808;2023-04-09T13:54:31;15.90;99.90
9043;DHT22;4556;49.150;8.808;2023-04-09T13:57:00;15.90;99.90
9043;DHT22;4556;49.150;8.808;2023-04-09T13:59:28;15.90;99.90
9043;DHT22;4556;49.150;8.808;2023-04-09T14:02:02;16.00;99.90
9043;DHT22;4556;49.150;8.808;2023-04-09T14:04:42;16.00;99.90
9043;DHT22;4556;49.150;8.808;2023-04-09T14:07:11;15.90;99.90
9043;DHT22;4556;49.150;8.808;2023-04-09T14:09:40;16.00;99.90
9043;DHT22;4556;49.150;8.808;2023-04-09T14:12:07;16.00;99.90
9043;DHT22;4556;49.150;8.808;2023-04-09T14:14:34;16.20;99.90
9043;DHT22;4556;49.150;8.808;2023-04-09T14:17:01;16.40;99.90
9043;DHT22;4556;49.150;8.808;2023-04-09T14:19:29;16.50;99.90
9043;DHT22;4556;49.150;8.808;2023-04-09T14:21:56;16.50;99.90
9043;DHT22;4556;49.150;8.808;2023-04-09T14:24:25;16.50;99.90
9043;DHT22;4556;49.150;8.808;2023-04-09T14:26:55;16.50;99.90
9043;DHT22;4556;49.150;8.808;2023-04-09T14:29:22;16.80;99.90
9043;DHT22;4556;49.150;8.808;2023-04-09T21:17:40;6.80;99.90
9043;DHT22;4556;49.150;8.808;2023-04-09T21:23:16;6.80;99.90
9043;DHT22;4556;49.150;8.808;2023-04-09T21:26:04;6.70;99.90
9043;DHT22;4556;49.150;8.808;2023-04-09T21:28:38;6.40;99.90
9043;DHT22;4556;49.150;8.808;2023-04-09T21:33:45;6.70;99.90
9043;DHT22;4556;49.150;8.808;2023-04-09T21:36:15;7.40;99.90
9043;DHT22;4556;49.150;8.808;2023-04-09T21:38:42;6.80;99.90
9043;DHT22;4556;49.150;8.808;2023-04-09T21:41:09;6.70;99.90
9043;DHT22;4556;49.150;8.808;2023-04-09T21:43:36;6.70;99.90
9043;DHT22;4556;49.150;8.808;2023-04-09T21:46:04;6.70;99.90
9043;DHT22;4556;49.150;8.808;2023-04-09T21:48:48;6.70;99.90
9043;DHT22;4556;49.150;8.808;2023-04-09T21:51:19;6.70;99.90
9043;DHT22;4556;49.150;8.808;2023-04-09T21:53:48;7.70;99.90
9043;DHT22;4556;49.150;8.808;2023-04-09T21:56:22;6.90;99.90
9043;DHT22;4556;49.150;8.808;2023-04-09T21:58:56;6.80;99.90
9043;DHT22;4556;49.150;8.808;2023-04-09T22:01:26;6.70;99.90
9043;DHT22;4556;49.150;8.808;2023-04-09T22:04:02;6.60;99.90
9043;DHT22;4556;49.150;8.808;2023-04-09T22:06:33;6.70;99.90
9043;DHT22;4556;49.150;8.808;2023-04-09T22:09:00;6.60;99.90
9043;DHT22;4556;49.150;8.808;2023-04-09T22:11:30;7.00;99.90
9043;DHT22;4556;49.150;8.808;2023-04-09T22:14:13;6.60;99.90
9043;DHT22;4556;49.150;8.808;2023-04-09T22:16:45;6.60;99.90
9043;DHT22;4556;49.150;8.808;2023-04-09T22:26:02;6.30;99.90
9043;DHT22;4556;49.150;8.808;2023-04-09T22:28:29;6.30;99.90
9043;DHT22;4556;49.150;8.808;2023-04-09T22:30:56;6.30;99.90
9043;DHT22;4556;49.150;8.808;2023-04-09T22:33:24;7.00;99.90
9043;DHT22;4556;49.150;8.808;2023-04-09T22:35:51;7.40;99.90
9043;DHT22;4556;49.150;8.808;2023-04-09T22:38:21;6.40;99.90
9043;DHT22;4556;49.150;8.808;2023-04-09T22:40:48;6.70;99.90
9043;DHT22;4556;49.150;8.808;2023-04-09T22:43:17;6.30;99.90
9043;DHT22;4556;49.150;8.808;2023-04-09T22:45:48;6.30;99.90
9043;DHT22;4556;49.150;8.808;2023-04-09T22:48:16;6.90;99.90
9043;DHT22;4556;49.150;8.808;2023-04-09T22:50:44;6.20;99.90
9043;DHT22;4556;49.150;8.808;2023-04-09T22:53:11;6.20;99.90
9043;DHT22;4556;49.150;8.808;2023-04-09T22:55:43;7.20;99.90
9043;DHT22;4556;49.150;8.808;2023-04-09T22:58:11;6.20;99.90
9043;DHT22;4556;49.150;8.808;2023-04-09T23:00:40;6.70;99.90
9043;DHT22;4556;49.150;8.808;2023-04-09T23:03:07;6.20;99.90
9043;DHT22;4556;49.150;8.808;2023-04-09T23:05:34;7.70;99.90
9043;DHT22;4556;49.150;8.808;2023-04-09T23:08:01;6.20;99.90
9043;DHT22;4556;49.150;8.808;2023-04-09T23:10:28;6.20;99.90
9043;DHT22;4556;49.150;8.808;2023-04-09T23:12:56;6.70;99.90
9043;DHT22;4556;49.150;8.808;2023-04-09T23:15:23;6.70;99.90
9043;DHT22;4556;49.150;8.808;2023-04-09T23:17:52;6.60;99.90
9043;DHT22;4556;49.150;8.808;2023-04-09T23:20:19;5.90;99.90
9043;DHT22;4556;49.150;8.808;2023-04-09T23:22:47;5.90;99.90